createdAt,value
2023-02-06T00:00:12.406Z,102976.44
2023-02-06T00:02:39.168Z,102894.38
2023-02-06T00:08:07.493Z,102982.28
2023-02-06T00:10:36.700Z,102982.13
2023-02-06T00:13:10.843Z,102921.53
2023-02-06T00:15:39.273Z,102952.75
2023-02-06T00:18:27.446Z,103033.97
2023-02-06T00:20:59.921Z,102990.50
2023-02-06T00:23:32.641Z,103008.78
2023-02-06T00:25:59.240Z,103045.06
2023-02-06T00:28:27.052Z,103043.25
2023-02-06T00:31:13.701Z,103035.47
2023-02-06T00:33:57.296Z,103044.94
2023-02-06T00:36:26.592Z,103020.78
2023-02-06T00:38:53.543Z,102999.13
2023-02-06T00:41:21.277Z,103020.03
2023-02-06T00:46:36.623Z,103057.97
2023-02-06T00:49:05.827Z,103000.06
2023-02-06T00:51:37.115Z,103030.16
2023-02-06T00:54:04.087Z,103025.81
2023-02-06T00:56:30.797Z,103026.63
2023-02-06T00:58:57.531Z,102999.06
2023-02-06T01:01:31.481Z,103056.72
2023-02-06T01:03:58.230Z,103048.84
2023-02-06T01:06:25.034Z,103057.66
2023-02-06T01:08:51.908Z,103061.13
2023-02-06T01:11:28.804Z,103056.88
2023-02-06T01:13:58.529Z,103017.22
2023-02-06T01:16:25.873Z,103043.09
2023-02-06T01:18:56.693Z,102938.50
2023-02-06T01:21:31.358Z,103006.63
2023-02-06T01:23:58.615Z,103014.28
2023-02-06T01:26:40.601Z,103032.09
2023-02-06T01:29:07.413Z,103057.09
2023-02-06T01:31:39.156Z,103069.41
2023-02-06T01:34:11.388Z,103017.72
2023-02-06T01:36:47.314Z,103082.81
2023-02-06T01:39:14.040Z,103056.53
2023-02-06T01:41:43.769Z,103056.81
2023-02-06T01:44:13.434Z,103067.16
2023-02-06T01:46:41.835Z,102999.72
2023-02-06T01:49:12.416Z,103049.75
2023-02-06T01:51:58.758Z,103068.09
2023-02-06T01:54:43.230Z,103068.72
2023-02-06T01:57:13.485Z,103049.28
2023-02-06T01:59:46.890Z,103045.69
2023-02-06T02:02:23.157Z,103067.25
2023-02-06T02:04:52.802Z,103013.63
2023-02-06T02:07:44.424Z,103069.69
2023-02-06T02:10:15.268Z,103048.25
2023-02-06T02:12:54.306Z,103069.06
2023-02-06T02:15:33.005Z,103075.16
2023-02-06T02:18:22.908Z,103070.81
2023-02-06T02:21:09.167Z,103009.53
2023-02-06T02:23:58.125Z,103060.66
2023-02-06T02:26:58.618Z,103080.56
2023-02-06T02:30:01.502Z,103024.56
2023-02-06T02:33:46.796Z,103072.00
2023-02-06T02:36:29.452Z,103081.66
2023-02-06T02:39:38.825Z,103070.44
2023-02-06T02:42:34.057Z,103086.25
2023-02-06T02:45:13.032Z,103059.50
2023-02-06T02:50:53.041Z,103067.34
2023-02-06T02:53:20.033Z,103082.88
2023-02-06T02:55:47.564Z,103061.34
2023-02-06T02:58:23.657Z,103082.94
2023-02-06T03:01:00.841Z,103027.44
2023-02-06T03:03:39.288Z,103049.97
2023-02-06T03:06:13.180Z,103049.84
2023-02-06T03:09:14.327Z,103076.72
2023-02-06T03:11:56.105Z,103011.06
2023-02-06T03:14:34.830Z,103030.22
2023-02-06T03:17:23.703Z,103074.59
2023-02-06T03:19:59.124Z,102835.38
2023-02-06T03:22:35.026Z,103055.53
2023-02-06T03:25:05.128Z,103052.06
2023-02-06T03:27:34.884Z,103088.28
2023-02-06T03:30:04.431Z,103101.50
2023-02-06T03:32:40.355Z,103085.63
2023-02-06T03:35:30.844Z,103082.09
2023-02-06T03:37:58.245Z,103090.06
2023-02-06T03:40:37.223Z,102976.09
2023-02-06T03:43:05.914Z,103091.16
2023-02-06T03:45:42.146Z,103027.44
2023-02-06T03:48:35.929Z,103101.81
2023-02-06T03:51:11.606Z,103068.09
2023-02-06T03:53:39.129Z,103076.97
2023-02-06T03:56:16.084Z,103060.50
2023-02-06T03:58:46.611Z,102970.22
2023-02-06T04:01:16.476Z,103013.34
2023-02-06T04:03:49.577Z,103097.38
2023-02-06T04:06:24.559Z,103073.25
2023-02-06T04:08:51.602Z,103125.38
2023-02-06T04:11:18.308Z,103130.19
2023-02-06T04:13:45.100Z,103093.34
2023-02-06T04:16:21.205Z,103119.13
2023-02-06T04:18:47.923Z,103076.63
2023-02-06T04:21:17.341Z,103121.44
2023-02-06T04:23:54.785Z,103111.78
2023-02-06T04:26:40.683Z,103116.72
2023-02-06T04:29:07.380Z,103104.69
2023-02-06T04:31:34.149Z,103113.34
2023-02-06T04:34:10.559Z,103087.22
2023-02-06T04:36:42.658Z,103102.72
2023-02-06T04:41:51.665Z,103073.22
2023-02-06T04:44:22.741Z,103059.44
2023-02-06T04:46:51.106Z,103091.75
2023-02-06T04:49:18.102Z,103086.50
2023-02-06T04:51:45.010Z,103116.31
2023-02-06T04:54:18.845Z,103116.31
2023-02-06T04:56:46.298Z,103079.38
2023-02-06T04:59:15.567Z,103128.81
2023-02-06T05:01:45.135Z,103131.47
2023-02-06T05:04:17.323Z,103130.72
2023-02-06T05:06:46.590Z,103136.94
2023-02-06T05:09:13.331Z,103044.38
2023-02-06T05:11:42.266Z,103113.66
2023-02-06T05:14:13.128Z,103125.56
2023-02-06T05:16:45.440Z,103131.81
2023-02-06T05:19:12.404Z,103112.72
2023-02-06T05:21:43.534Z,103134.47
2023-02-06T05:24:11.920Z,103119.59
2023-02-06T05:26:38.740Z,103140.63
2023-02-06T05:29:14.473Z,103128.41
2023-02-06T05:31:43.134Z,103143.50
2023-02-06T05:34:11.119Z,103135.03
2023-02-06T05:36:40.598Z,103128.75
2023-02-06T05:39:22.010Z,103120.28
2023-02-06T05:41:48.687Z,103158.59
2023-02-06T05:44:17.792Z,103131.06
2023-02-06T05:46:54.813Z,103006.66
2023-02-06T05:53:03.084Z,103130.66
2023-02-06T05:55:29.757Z,103119.38
2023-02-06T05:58:06.387Z,103164.47
2023-02-06T06:00:42.148Z,103170.47
2023-02-06T06:03:11.350Z,103149.31
2023-02-06T06:05:38.178Z,103169.53
2023-02-06T06:08:07.515Z,103177.47
2023-02-06T06:10:35.627Z,103065.19
2023-02-06T06:13:02.377Z,103117.06
2023-02-06T06:15:35.906Z,103055.72
2023-02-06T06:18:11.780Z,103152.72
2023-02-06T06:20:43.582Z,103058.34
2023-02-06T06:23:11.964Z,103164.44
2023-02-06T06:25:39.585Z,103098.53
2023-02-06T06:28:11.126Z,103089.72
2023-02-06T06:30:40.686Z,103160.69
2023-02-06T06:33:15.409Z,103154.84
2023-02-06T06:35:44.794Z,103125.38
2023-02-06T06:38:11.516Z,103176.56
2023-02-06T06:40:43.986Z,103178.16
2023-02-06T06:43:10.758Z,103118.31
2023-02-06T06:45:39.755Z,103153.91
2023-02-06T06:48:10.454Z,103175.53
2023-02-06T06:50:39.163Z,103176.63
2023-02-06T06:53:07.255Z,103158.50
2023-02-06T06:55:45.675Z,103187.31
2023-02-06T06:58:15.285Z,103187.41
2023-02-06T07:00:47.830Z,103184.84
2023-02-06T07:03:14.734Z,103117.28
2023-02-06T07:05:41.856Z,103171.03
2023-02-06T07:08:08.555Z,103036.75
2023-02-06T07:10:53.310Z,103146.25
2023-02-06T07:13:22.816Z,103187.03
2023-02-06T07:15:50.844Z,103203.50
2023-02-06T07:18:26.794Z,103202.50
2023-02-06T07:21:00.421Z,103192.03
2023-02-06T07:23:30.396Z,103175.50
2023-02-06T07:26:09.928Z,103188.22
2023-02-06T07:28:36.807Z,103125.22
2023-02-06T07:31:07.191Z,103115.00
2023-02-06T07:33:40.881Z,103158.16
2023-02-06T07:36:18.627Z,103157.09
2023-02-06T07:38:45.353Z,103187.19
2023-02-06T07:41:16.252Z,103181.81
2023-02-06T07:43:50.765Z,103103.72
2023-02-06T07:46:23.160Z,103190.94
2023-02-06T07:48:51.390Z,103196.94
2023-02-06T07:51:25.413Z,102972.00
2023-02-06T07:53:55.168Z,103002.00
2023-02-06T07:56:23.922Z,103055.72
2023-02-06T07:58:52.760Z,103176.66
2023-02-06T08:01:25.749Z,103203.31
2023-02-06T08:03:54.141Z,103101.03
2023-02-06T08:06:25.471Z,103042.16
2023-02-06T08:08:54.737Z,103184.69
2023-02-06T08:11:24.725Z,103205.91
2023-02-06T08:13:54.769Z,103206.06
2023-02-06T08:16:23.493Z,103213.09
2023-02-06T08:18:50.568Z,103188.38
2023-02-06T08:21:23.570Z,103151.03
2023-02-06T08:24:02.545Z,103199.63
2023-02-06T08:26:32.327Z,103150.31
2023-02-06T08:29:03.105Z,103195.72
2023-02-06T08:31:38.414Z,103077.13
2023-02-06T08:34:09.063Z,103174.72
2023-02-06T08:36:38.991Z,103181.22
2023-02-06T08:39:06.228Z,103161.97
2023-02-06T08:41:50.561Z,103142.78
2023-02-06T08:44:19.980Z,103167.50
2023-02-06T08:46:49.582Z,103170.03
2023-02-06T08:49:24.675Z,103167.97
2023-02-06T08:51:53.258Z,103098.88
2023-02-06T08:54:26.764Z,103093.22
2023-02-06T08:56:56.487Z,103140.72
2023-02-06T08:59:23.292Z,103136.31
2023-02-06T09:01:52.237Z,103125.66
2023-02-06T09:04:22.319Z,103154.63
2023-02-06T09:06:52.358Z,103169.50
2023-02-06T09:09:19.439Z,103131.88
2023-02-06T09:11:46.132Z,103160.03
2023-02-06T09:14:18.247Z,103131.28
2023-02-06T09:16:47.564Z,103159.09
2023-02-06T09:19:30.974Z,103156.84
2023-02-06T09:21:58.057Z,103034.09
2023-02-06T09:24:33.418Z,103042.59
2023-02-06T09:27:01.149Z,102967.19
2023-02-06T09:29:36.026Z,103076.19
2023-02-06T09:32:14.388Z,103090.94
2023-02-06T09:35:05.702Z,103159.38
2023-02-06T09:37:34.993Z,102926.19
2023-02-06T09:40:05.270Z,103014.59
2023-02-06T09:42:45.757Z,103080.50
2023-02-06T09:45:25.788Z,103126.66
2023-02-06T09:48:16.333Z,103036.47
2023-02-06T09:51:20.932Z,103160.22
2023-02-06T09:54:28.360Z,103154.47
2023-02-06T09:57:07.583Z,103044.56
2023-02-06T09:59:56.401Z,103135.41
2023-02-06T10:03:03.834Z,103146.75
2023-02-06T10:05:51.029Z,103143.22
2023-02-06T10:08:38.632Z,103098.56
2023-02-06T10:11:39.939Z,103142.91
2023-02-06T10:14:19.437Z,103099.41
2023-02-06T10:16:52.744Z,103106.94
2023-02-06T10:19:47.847Z,103111.53
2023-02-06T10:22:26.919Z,103122.34
2023-02-06T10:25:22.674Z,103069.03
2023-02-06T10:28:06.516Z,103017.63
2023-02-06T10:31:10.943Z,103109.25
2023-02-06T10:33:53.342Z,103106.72
2023-02-06T10:36:38.392Z,103100.22
2023-02-06T10:39:42.659Z,103092.97
2023-02-06T10:42:46.974Z,103083.75
2023-02-06T10:45:39.899Z,103077.47
2023-02-06T10:48:37.414Z,102969.03
2023-02-06T10:51:35.906Z,103022.81
2023-02-06T10:54:21.698Z,103056.66
2023-02-06T10:57:10.485Z,103062.38
2023-02-06T10:59:53.721Z,103062.09
2023-02-06T11:02:34.115Z,103024.09
2023-02-06T11:05:16.980Z,102895.25
2023-02-06T11:08:11.370Z,103050.13
2023-02-06T11:10:38.612Z,103008.03
2023-02-06T11:13:11.637Z,103054.75
2023-02-06T11:15:41.272Z,103048.97
2023-02-06T11:18:12.588Z,102952.03
2023-02-06T11:20:45.046Z,102972.41
2023-02-06T11:23:27.923Z,103040.38
2023-02-06T11:26:10.759Z,103036.94
2023-02-06T11:29:14.198Z,103040.94
2023-02-06T11:31:52.137Z,102806.47
2023-02-06T11:34:32.013Z,103021.94
2023-02-06T11:37:33.699Z,102912.47
2023-02-06T11:40:27.178Z,103023.91
2023-02-06T11:43:16.627Z,103024.84
2023-02-06T11:45:44.362Z,103011.28
2023-02-06T11:48:35.588Z,103030.94
2023-02-06T11:51:09.105Z,103003.16
2023-02-06T11:53:36.504Z,103022.13
2023-02-06T11:56:20.821Z,103019.88
2023-02-06T11:59:06.834Z,102993.31
2023-02-06T12:01:48.023Z,102983.16
2023-02-06T12:04:38.737Z,103017.44
2023-02-06T12:07:14.782Z,102940.78
2023-02-06T12:09:43.628Z,103005.28
2023-02-06T12:12:28.620Z,102974.03
2023-02-06T12:15:29.516Z,102983.53
2023-02-06T12:18:04.911Z,102974.38
2023-02-06T12:20:43.053Z,102896.16
2023-02-06T12:23:31.637Z,102974.91
2023-02-06T12:26:03.043Z,102945.50
2023-02-06T12:28:48.016Z,102958.88
2023-02-06T12:31:48.388Z,102959.00
2023-02-06T12:34:25.457Z,102916.91
2023-02-06T12:37:14.122Z,102933.50
2023-02-06T12:39:45.834Z,102931.66
2023-02-06T12:42:35.999Z,102932.38
2023-02-06T12:45:25.379Z,102938.13
2023-02-06T12:48:04.962Z,102918.09
2023-02-06T12:50:46.708Z,102893.25
2023-02-06T12:53:42.445Z,102865.19
2023-02-06T12:56:52.944Z,102908.31
2023-02-06T12:59:34.894Z,102912.16
2023-02-06T13:02:35.985Z,102913.41
2023-02-06T13:05:15.923Z,102849.66
2023-02-06T13:07:49.629Z,102900.53
2023-02-06T13:10:35.130Z,102855.91
2023-02-06T13:13:24.101Z,102874.03
2023-02-06T13:16:22.399Z,102835.78
2023-02-06T13:18:56.646Z,102661.00
2023-02-06T13:24:59.119Z,102792.94
2023-02-06T13:27:58.845Z,102630.59
2023-02-06T13:30:31.666Z,102828.63
2023-02-06T13:33:24.052Z,102732.91
2023-02-06T13:36:19.792Z,102820.31
2023-02-06T13:39:40.365Z,102733.44
2023-02-06T13:42:51.574Z,102862.59
2023-02-06T13:45:37.000Z,102779.16
2023-02-06T13:48:28.719Z,102793.31
2023-02-06T13:51:27.417Z,102872.09
2023-02-06T13:54:18.436Z,102870.34
2023-02-06T13:57:07.185Z,102846.63
2023-02-06T13:59:46.279Z,102806.16
2023-02-06T14:02:22.109Z,102867.69
2023-02-06T14:05:01.885Z,102755.00
2023-02-06T14:07:40.970Z,102726.63
2023-02-06T14:10:31.399Z,102863.25
2023-02-06T14:13:23.169Z,102867.44
2023-02-06T14:16:09.506Z,102866.75
2023-02-06T14:18:51.453Z,102855.84
2023-02-06T14:21:35.749Z,102847.91
2023-02-06T14:24:47.255Z,102829.03
2023-02-06T14:27:14.675Z,102840.84
2023-02-06T14:30:12.587Z,102856.50
2023-02-06T14:32:55.828Z,102802.91
2023-02-06T14:35:44.502Z,102876.16
2023-02-06T14:38:29.450Z,102826.53
2023-02-06T14:41:06.947Z,102682.34
2023-02-06T14:43:42.321Z,102836.84
2023-02-06T14:46:19.759Z,102692.16
2023-02-06T14:49:06.435Z,102630.88
2023-02-06T14:51:42.697Z,102656.91
2023-02-06T14:54:46.691Z,102855.06
2023-02-06T14:57:37.964Z,102615.41
2023-02-06T15:00:37.489Z,102825.44
2023-02-06T15:06:14.578Z,102730.97
2023-02-06T15:08:50.727Z,102874.25
2023-02-06T15:11:26.223Z,102852.69
2023-02-06T15:14:20.184Z,102872.72
2023-02-06T15:16:52.240Z,102872.81
2023-02-06T15:19:32.376Z,102630.81
2023-02-06T15:22:10.368Z,102652.97
2023-02-06T15:28:19.267Z,102856.56
2023-02-06T15:30:57.784Z,102858.03
2023-02-06T15:33:30.482Z,102695.72
2023-02-06T15:35:59.500Z,102854.59
2023-02-06T15:38:29.243Z,102777.53
2023-02-06T15:41:00.404Z,102825.78
2023-02-06T15:43:53.707Z,102839.13
2023-02-06T15:46:24.507Z,102815.69
2023-02-06T15:49:03.384Z,102734.31
2023-02-06T15:51:51.242Z,102780.72
2023-02-06T15:54:28.215Z,102867.50
2023-02-06T15:57:06.717Z,102852.72
2023-02-06T15:59:36.890Z,102841.63
2023-02-06T16:02:05.397Z,102814.72
2023-02-06T16:04:37.014Z,102842.13
2023-02-06T16:07:09.507Z,102866.38
2023-02-06T16:09:42.086Z,102794.56
2023-02-06T16:12:10.302Z,102804.16
2023-02-06T16:14:41.384Z,102854.91
2023-02-06T16:17:20.386Z,102804.16
2023-02-06T16:20:32.371Z,102865.78
2023-02-06T16:23:30.979Z,102865.47
2023-02-06T16:26:26.859Z,102862.63
2023-02-06T16:29:37.231Z,102855.13
2023-02-06T16:32:21.791Z,102791.25
2023-02-06T16:35:03.561Z,102730.41
2023-02-06T16:37:30.903Z,102866.03
2023-02-06T16:39:57.896Z,102816.91
2023-02-06T16:42:48.020Z,102859.72
2023-02-06T16:45:32.377Z,102858.41
2023-02-06T16:48:02.549Z,102851.47
2023-02-06T16:50:29.486Z,102861.59
2023-02-06T16:52:59.798Z,102845.34
2023-02-06T16:55:27.257Z,102731.63
2023-02-06T16:57:58.811Z,102701.69
2023-02-06T17:03:00.575Z,102849.81
2023-02-06T17:05:31.594Z,102853.22
2023-02-06T17:08:01.828Z,102856.47
2023-02-06T17:10:50.542Z,102717.03
2023-02-06T17:16:03.823Z,102888.72
2023-02-06T17:18:33.540Z,102803.84
2023-02-06T17:21:01.539Z,102807.75
2023-02-06T17:23:34.366Z,102898.59
2023-02-06T17:26:01.248Z,102890.94
2023-02-06T17:28:28.032Z,102860.16
2023-02-06T17:30:55.225Z,102890.97
2023-02-06T17:33:22.639Z,102898.63
2023-02-06T17:35:49.842Z,102882.94
2023-02-06T17:38:17.009Z,102741.78
2023-02-06T17:40:44.310Z,102801.47
2023-02-06T17:43:11.376Z,102812.44
2023-02-06T17:45:40.825Z,102669.25
2023-02-06T17:48:10.903Z,102746.63
2023-02-06T17:50:47.109Z,102820.19
2023-02-06T17:53:18.021Z,102798.16
2023-02-06T17:55:48.664Z,102924.31
2023-02-06T17:58:21.832Z,102771.06
2023-02-06T18:00:57.766Z,102790.78
2023-02-06T18:03:24.779Z,102892.19
2023-02-06T18:06:11.246Z,102801.69
2023-02-06T18:08:49.866Z,102722.78
2023-02-06T18:11:26.600Z,102933.13
2023-02-06T18:13:54.219Z,102927.88
2023-02-06T18:16:26.641Z,102819.50
2023-02-06T18:19:02.959Z,102701.41
2023-02-06T18:21:31.100Z,102797.09
2023-02-06T18:24:02.870Z,102808.75
2023-02-06T18:26:29.809Z,102676.09
2023-02-06T18:28:59.738Z,102912.75
2023-02-06T18:31:33.502Z,102707.72
2023-02-06T18:34:10.402Z,102786.19
2023-02-06T18:36:43.072Z,102937.75
2023-02-06T18:39:11.772Z,102778.22
2023-02-06T18:42:01.022Z,102792.00
2023-02-06T18:44:49.280Z,102703.28
2023-02-06T18:47:17.779Z,102809.50
2023-02-06T18:49:49.961Z,102890.94
2023-02-06T18:52:19.712Z,102913.44
2023-02-06T18:54:48.940Z,102851.22
2023-02-06T18:57:15.996Z,102767.66
2023-02-06T18:59:43.129Z,102869.47
2023-02-06T19:02:13.826Z,102778.03
2023-02-06T19:04:47.670Z,102724.50
2023-02-06T19:07:20.963Z,102720.13
2023-02-06T19:09:55.433Z,102939.97
2023-02-06T19:12:25.444Z,102929.00
2023-02-06T19:14:52.698Z,102856.63
2023-02-06T19:17:19.953Z,102953.75
2023-02-06T19:19:49.847Z,102931.00
2023-02-06T19:22:22.526Z,102773.59
2023-02-06T19:24:54.822Z,102825.13
2023-02-06T19:27:21.673Z,102868.47
2023-02-06T19:29:48.680Z,102920.16
2023-02-06T19:32:22.765Z,102719.25
2023-02-06T19:34:58.953Z,102792.00
2023-02-06T19:37:26.109Z,102980.34
2023-02-06T19:40:02.986Z,102785.59
2023-02-06T19:42:32.718Z,102729.38
2023-02-06T19:45:05.206Z,102909.91
2023-02-06T19:47:38.127Z,102834.97
2023-02-06T19:50:08.146Z,102996.25
2023-02-06T19:52:42.093Z,102855.59
2023-02-06T19:55:13.323Z,102743.56
2023-02-06T19:57:50.333Z,102956.63
2023-02-06T20:00:28.821Z,102955.06
2023-02-06T20:02:55.953Z,102837.13
2023-02-06T20:05:27.249Z,102749.97
2023-02-06T20:07:59.094Z,102783.78
2023-02-06T20:10:33.128Z,102848.19
2023-02-06T20:13:33.097Z,103001.94
2023-02-06T20:16:23.938Z,102971.97
2023-02-06T20:19:02.361Z,102729.34
2023-02-06T20:21:50.552Z,102911.78
2023-02-06T20:24:31.308Z,102904.59
2023-02-06T20:27:07.953Z,102840.56
2023-02-06T20:29:51.744Z,102842.22
2023-02-06T20:32:19.775Z,102781.78
2023-02-06T20:34:51.933Z,102973.06
2023-02-06T20:37:21.518Z,102901.44
2023-02-06T20:40:00.871Z,102921.00
2023-02-06T20:42:35.580Z,102853.69
2023-02-06T20:45:13.260Z,102950.78
2023-02-06T20:47:40.745Z,102833.31
2023-02-06T20:50:38.407Z,103018.97
2023-02-06T20:55:50.623Z,102937.94
2023-02-06T20:58:17.455Z,103004.22
2023-02-06T21:00:51.870Z,102942.03
2023-02-06T21:03:29.122Z,102938.69
2023-02-06T21:05:58.882Z,102986.19
2023-02-06T21:08:35.067Z,102991.59
2023-02-06T21:11:02.325Z,103032.38
2023-02-06T21:13:29.263Z,102792.38
2023-02-06T21:16:05.189Z,102989.16
2023-02-06T21:18:46.338Z,103004.00
2023-02-06T21:21:14.857Z,102928.78
2023-02-06T21:23:43.172Z,103015.25
2023-02-06T21:26:18.417Z,103020.19
2023-02-06T21:29:10.531Z,102881.91
2023-02-06T21:32:14.051Z,103019.03
2023-02-06T21:34:53.149Z,102970.63
2023-02-06T21:37:23.106Z,103038.22
2023-02-06T21:39:55.911Z,103020.34
2023-02-06T21:42:28.312Z,103043.88
2023-02-06T21:44:57.598Z,103044.84
2023-02-06T21:47:32.694Z,103043.22
2023-02-06T21:50:07.288Z,103016.41
2023-02-06T21:52:37.954Z,103044.22
2023-02-06T21:55:19.571Z,102987.38
2023-02-06T21:57:47.613Z,103026.50
2023-02-06T22:00:18.268Z,103030.09
2023-02-06T22:02:52.935Z,102899.00
2023-02-06T22:05:20.139Z,102846.53
2023-02-06T22:08:07.005Z,102972.72
2023-02-06T22:10:57.247Z,102900.25
2023-02-06T22:13:24.785Z,102847.63
2023-02-06T22:16:18.103Z,102939.41
2023-02-06T22:18:57.927Z,102965.47
2023-02-06T22:25:19.039Z,103059.47
2023-02-06T22:28:05.572Z,102845.69
2023-02-06T22:30:40.895Z,103022.81
2023-02-06T22:33:08.534Z,102989.72
2023-02-06T22:35:42.573Z,102987.81
2023-02-06T22:38:10.069Z,102993.19
2023-02-06T22:40:36.909Z,102908.44
2023-02-06T22:43:13.445Z,102955.09
2023-02-06T22:45:48.973Z,102983.91
2023-02-06T22:48:18.686Z,102779.03
2023-02-06T22:50:53.456Z,102894.09
2023-02-06T22:53:40.663Z,102915.00
2023-02-06T22:56:32.871Z,102881.38
2023-02-06T22:59:22.449Z,103081.16
2023-02-06T23:01:59.362Z,103075.19
2023-02-06T23:04:52.624Z,103063.19
2023-02-06T23:07:34.952Z,103051.84
2023-02-06T23:10:04.654Z,103093.53
2023-02-06T23:12:31.281Z,103089.19
2023-02-06T23:15:10.825Z,102910.41
2023-02-06T23:17:39.669Z,102849.06
2023-02-06T23:20:09.928Z,102885.59
2023-02-06T23:22:38.890Z,102832.13
2023-02-06T23:25:14.782Z,102922.09
2023-02-06T23:27:48.008Z,102897.25
2023-02-06T23:30:14.787Z,103002.75
2023-02-06T23:32:41.424Z,102939.59
2023-02-06T23:35:08.421Z,102974.94
2023-02-06T23:37:40.876Z,103108.47
2023-02-06T23:40:10.785Z,103098.38
2023-02-06T23:42:37.733Z,103061.97
2023-02-06T23:45:10.813Z,103071.56
2023-02-06T23:47:40.406Z,103086.25
2023-02-06T23:50:20.365Z,103062.16
2023-02-06T23:52:52.979Z,103104.63
2023-02-06T23:55:20.293Z,103121.22
2023-02-06T23:57:50.011Z,103038.34
